createdAt,value
2023-04-24T00:00:37.734Z,12.33
2023-04-24T00:01:37.756Z,12.36
2023-04-24T00:02:37.827Z,12.31
2023-04-24T00:03:37.795Z,12.34
2023-04-24T00:04:37.808Z,12.34
2023-04-24T00:05:37.701Z,12.31
2023-04-24T00:06:37.664Z,12.31
2023-04-24T00:07:37.657Z,12.33
2023-04-24T00:08:37.672Z,12.31
2023-04-24T00:09:37.643Z,12.31
2023-04-24T00:10:37.646Z,12.33
2023-04-24T00:11:37.609Z,12.31
2023-04-24T00:12:37.596Z,12.31
2023-04-24T00:13:37.587Z,12.34
2023-04-24T00:14:37.574Z,12.31
2023-04-24T00:15:37.573Z,12.34
2023-04-24T00:16:37.618Z,12.33
2023-04-24T00:17:37.551Z,12.34
2023-04-24T00:18:37.529Z,12.36
2023-04-24T00:19:37.521Z,12.33
2023-04-24T00:20:37.508Z,12.34
2023-04-24T00:21:37.522Z,12.33
2023-04-24T00:22:37.488Z,12.26
2023-04-24T00:23:37.479Z,12.33
2023-04-24T00:24:37.463Z,12.31
2023-04-24T00:25:37.461Z,12.30
2023-04-24T00:26:37.440Z,12.29
2023-04-24T00:27:37.429Z,12.30
2023-04-24T00:28:37.420Z,12.30
2023-04-24T00:29:37.409Z,12.31
2023-04-24T00:30:37.403Z,12.26
2023-04-24T00:31:37.401Z,12.26
2023-04-24T00:32:37.422Z,12.18
2023-04-24T00:33:37.362Z,12.18
2023-04-24T00:34:37.365Z,12.15
2023-04-24T00:35:37.336Z,12.12
2023-04-24T00:36:37.330Z,12.08
2023-04-24T00:37:37.337Z,12.05
2023-04-24T00:38:37.306Z,12.08
2023-04-24T00:39:37.292Z,12.07
2023-04-24T00:40:37.284Z,12.08
2023-04-24T00:41:37.272Z,12.11
2023-04-24T00:42:37.262Z,12.07
2023-04-24T00:43:37.249Z,12.11
2023-04-24T00:44:37.237Z,12.03
2023-04-24T00:45:37.225Z,11.98
2023-04-24T00:46:37.313Z,11.98
2023-04-24T00:47:37.250Z,12.03
2023-04-24T00:48:37.191Z,12.01
2023-04-24T00:49:37.181Z,11.97
2023-04-24T00:50:37.179Z,12.00
2023-04-24T00:51:37.160Z,11.97
2023-04-24T00:52:37.201Z,12.00
2023-04-24T00:53:37.160Z,12.01
2023-04-24T00:54:37.126Z,12.01
2023-04-24T00:55:37.115Z,12.00
2023-04-24T00:56:37.103Z,11.96
2023-04-24T00:57:37.093Z,11.97
2023-04-24T00:58:37.079Z,11.97
2023-04-24T00:59:37.066Z,11.97
2023-04-24T01:00:37.060Z,11.96
2023-04-24T01:01:37.100Z,11.93
2023-04-24T01:02:37.135Z,11.90
2023-04-24T01:03:37.163Z,11.94
2023-04-24T01:04:37.081Z,11.93
2023-04-24T01:05:37.002Z,11.88
2023-04-24T01:06:36.992Z,11.85
2023-04-24T01:07:36.982Z,11.82
2023-04-24T01:08:36.967Z,11.81
2023-04-24T01:09:36.977Z,11.77
2023-04-24T01:10:36.946Z,11.72
2023-04-24T01:11:37.085Z,11.78
2023-04-24T01:12:36.928Z,11.78
2023-04-24T01:13:36.912Z,11.78
2023-04-24T01:14:36.918Z,11.75
2023-04-24T01:15:36.903Z,11.75
2023-04-24T01:16:36.880Z,11.74
2023-04-24T01:17:36.912Z,11.70
2023-04-24T01:18:36.862Z,11.72
2023-04-24T01:19:36.844Z,11.75
2023-04-24T01:20:36.835Z,11.70
2023-04-24T01:21:36.828Z,11.69
2023-04-24T01:22:36.820Z,11.67
2023-04-24T01:23:36.819Z,11.69
2023-04-24T01:24:36.792Z,11.66
2023-04-24T01:25:36.800Z,11.64
2023-04-24T01:26:36.772Z,11.69
2023-04-24T01:27:36.755Z,11.70
2023-04-24T01:28:36.746Z,11.69
2023-04-24T01:29:36.732Z,11.67
2023-04-24T01:30:36.729Z,11.67
2023-04-24T01:31:36.745Z,11.66
2023-04-24T01:32:36.758Z,11.66
2023-04-24T01:33:36.687Z,11.63
2023-04-24T01:34:36.678Z,11.60
2023-04-24T01:35:36.666Z,11.63
2023-04-24T01:36:36.657Z,11.60
2023-04-24T01:37:36.642Z,11.57
2023-04-24T01:38:36.634Z,11.60
2023-04-24T01:39:36.666Z,11.62
2023-04-24T01:40:36.611Z,11.62
2023-04-24T01:41:36.622Z,11.64
2023-04-24T01:42:36.638Z,11.63
2023-04-24T01:43:36.579Z,11.60
2023-04-24T01:44:36.614Z,11.63
2023-04-24T01:45:36.567Z,11.62
2023-04-24T01:46:36.758Z,11.63
2023-04-24T01:47:36.759Z,11.64
2023-04-24T01:48:36.518Z,11.67
2023-04-24T01:49:36.670Z,11.64
2023-04-24T01:50:36.505Z,11.67
2023-04-24T01:51:36.688Z,11.64
2023-04-24T01:52:36.584Z,11.64
2023-04-24T01:53:36.462Z,11.67
2023-04-24T01:54:36.474Z,11.64
2023-04-24T01:55:36.437Z,11.66
2023-04-24T01:56:36.444Z,11.63
2023-04-24T01:57:36.442Z,11.67
2023-04-24T01:58:36.415Z,11.64
2023-04-24T01:59:36.393Z,11.69
2023-04-24T02:00:36.417Z,11.69
2023-04-24T02:01:36.371Z,11.67
2023-04-24T02:02:36.516Z,11.69
2023-04-24T02:03:36.566Z,11.67
2023-04-24T02:04:36.343Z,11.69
2023-04-24T02:05:36.331Z,11.70
2023-04-24T02:06:36.330Z,11.70
2023-04-24T02:07:36.303Z,11.75
2023-04-24T02:08:36.297Z,11.72
2023-04-24T02:09:36.280Z,11.77
2023-04-24T02:10:36.267Z,11.78
2023-04-24T02:11:36.259Z,11.77
2023-04-24T02:12:36.252Z,11.81
2023-04-24T02:13:36.280Z,11.77
2023-04-24T02:14:36.226Z,11.77
2023-04-24T02:15:36.210Z,11.77
2023-04-24T02:16:36.254Z,11.79
2023-04-24T02:17:36.232Z,11.75
2023-04-24T02:18:36.195Z,11.75
2023-04-24T02:19:36.168Z,11.78
2023-04-24T02:20:36.161Z,11.77
2023-04-24T02:21:36.146Z,11.77
2023-04-24T02:22:36.142Z,11.77
2023-04-24T02:23:36.120Z,11.77
2023-04-24T02:24:36.120Z,11.79
2023-04-24T02:25:36.097Z,11.78
2023-04-24T02:26:36.094Z,11.78
2023-04-24T02:27:36.091Z,11.77
2023-04-24T02:28:36.067Z,11.79
2023-04-24T02:29:36.081Z,11.77
2023-04-24T02:30:36.045Z,11.77
2023-04-24T02:31:36.060Z,11.79
2023-04-24T02:32:36.031Z,11.78
2023-04-24T02:33:36.012Z,11.78
2023-04-24T02:34:35.996Z,11.77
2023-04-24T02:35:36.049Z,11.74
2023-04-24T02:36:35.977Z,11.78
2023-04-24T02:37:35.961Z,11.75
2023-04-24T02:38:35.955Z,11.79
2023-04-24T02:39:35.945Z,11.77
2023-04-24T02:40:35.939Z,11.74
2023-04-24T02:41:35.927Z,11.77
2023-04-24T02:42:35.908Z,11.77
2023-04-24T02:43:35.895Z,11.81
2023-04-24T02:44:35.888Z,11.79
2023-04-24T02:45:35.955Z,11.77
2023-04-24T02:46:35.864Z,11.81
2023-04-24T02:47:35.890Z,11.75
2023-04-24T02:48:35.841Z,11.74
2023-04-24T02:49:35.826Z,11.74
2023-04-24T02:50:35.824Z,11.70
2023-04-24T02:51:35.803Z,11.64
2023-04-24T02:52:35.796Z,11.60
2023-04-24T02:53:35.779Z,11.57
2023-04-24T02:54:35.770Z,11.57
2023-04-24T02:55:35.770Z,11.51
2023-04-24T02:56:35.752Z,11.48
2023-04-24T02:57:35.737Z,11.46
2023-04-24T02:58:35.726Z,11.44
2023-04-24T02:59:35.712Z,11.41
2023-04-24T03:00:35.714Z,11.42
2023-04-24T03:01:35.774Z,11.44
2023-04-24T03:02:35.760Z,11.44
2023-04-24T03:03:35.817Z,11.42
2023-04-24T03:04:35.772Z,11.44
2023-04-24T03:05:35.645Z,11.38
2023-04-24T03:06:35.637Z,11.42
2023-04-24T03:07:35.622Z,11.39
2023-04-24T03:08:35.616Z,11.38
2023-04-24T03:09:35.602Z,11.39
2023-04-24T03:10:35.590Z,11.39
2023-04-24T03:11:35.576Z,11.41
2023-04-24T03:12:35.571Z,11.39
2023-04-24T03:13:35.565Z,11.41
2023-04-24T03:14:35.558Z,11.39
2023-04-24T03:15:35.535Z,11.41
2023-04-24T03:16:35.592Z,11.44
2023-04-24T03:17:35.554Z,11.44
2023-04-24T03:18:35.504Z,11.39
2023-04-24T03:19:35.485Z,11.42
2023-04-24T03:20:35.482Z,11.42
2023-04-24T03:21:35.472Z,11.42
2023-04-24T03:22:35.454Z,11.38
2023-04-24T03:23:35.445Z,11.44
2023-04-24T03:24:35.440Z,11.41
2023-04-24T03:25:35.420Z,11.41
2023-04-24T03:26:35.416Z,11.38
2023-04-24T03:27:35.401Z,11.42
2023-04-24T03:28:35.389Z,11.41
2023-04-24T03:29:35.376Z,11.41
2023-04-24T03:30:35.368Z,11.42
2023-04-24T03:31:35.479Z,11.44
2023-04-24T03:32:35.382Z,11.46
2023-04-24T03:33:35.358Z,11.45
2023-04-24T03:34:35.323Z,11.46
2023-04-24T03:35:35.310Z,11.45
2023-04-24T03:36:35.303Z,11.48
2023-04-24T03:37:35.295Z,11.46
2023-04-24T03:38:35.280Z,11.45
2023-04-24T03:39:35.267Z,11.45
2023-04-24T03:40:35.257Z,11.46
2023-04-24T03:41:35.247Z,11.48
2023-04-24T03:42:36.016Z,11.46
2023-04-24T03:43:35.223Z,11.53
2023-04-24T03:44:35.212Z,11.51
2023-04-24T03:45:35.207Z,11.53
2023-04-24T03:46:35.282Z,11.54
2023-04-24T03:47:35.190Z,11.49
2023-04-24T03:48:35.194Z,11.53
2023-04-24T03:49:35.188Z,11.51
2023-04-24T03:50:35.140Z,11.51
2023-04-24T03:51:35.136Z,11.49
2023-04-24T03:52:35.122Z,11.48
2023-04-24T03:53:35.108Z,11.54
2023-04-24T03:54:35.096Z,11.53
2023-04-24T03:55:35.102Z,11.56
2023-04-24T03:56:35.071Z,11.53
2023-04-24T03:57:35.061Z,11.53
2023-04-24T03:58:35.051Z,11.56
2023-04-24T03:59:35.040Z,11.54
2023-04-24T04:00:35.023Z,11.57
2023-04-24T04:01:35.025Z,11.53
2023-04-24T04:02:35.079Z,11.54
2023-04-24T04:03:35.220Z,11.56
2023-04-24T04:04:35.121Z,11.54
2023-04-24T04:05:34.998Z,11.54
2023-04-24T04:06:34.964Z,11.53
2023-04-24T04:07:34.958Z,11.54
2023-04-24T04:08:34.938Z,11.54
2023-04-24T04:09:34.928Z,11.53
2023-04-24T04:10:34.917Z,11.56
2023-04-24T04:11:34.903Z,11.54
2023-04-24T04:12:34.904Z,11.53
2023-04-24T04:13:34.889Z,11.56
2023-04-24T04:14:34.872Z,11.57
2023-04-24T04:15:34.855Z,11.54
2023-04-24T04:16:34.849Z,11.54
2023-04-24T04:17:34.891Z,11.54
2023-04-24T04:18:34.829Z,11.54
2023-04-24T04:19:34.826Z,11.59
2023-04-24T04:20:34.801Z,11.57
2023-04-24T04:21:34.859Z,11.56
2023-04-24T04:22:34.782Z,11.59
2023-04-24T04:23:34.768Z,11.56
2023-04-24T04:24:34.897Z,11.59
2023-04-24T04:25:34.746Z,11.59
2023-04-24T04:26:34.739Z,11.62
2023-04-24T04:27:34.831Z,11.62
2023-04-24T04:28:34.712Z,11.62
2023-04-24T04:29:34.699Z,11.66
2023-04-24T04:30:34.742Z,11.66
2023-04-24T04:31:34.709Z,11.69
2023-04-24T04:32:34.694Z,11.66
2023-04-24T04:33:34.661Z,11.69
2023-04-24T04:34:34.678Z,11.72
2023-04-24T04:35:34.641Z,11.70
2023-04-24T04:36:34.639Z,11.72
2023-04-24T04:37:34.636Z,11.74
2023-04-24T04:38:34.727Z,11.77
2023-04-24T04:39:34.596Z,11.75
2023-04-24T04:40:34.579Z,11.75
2023-04-24T04:41:34.574Z,11.74
2023-04-24T04:42:34.551Z,11.81
2023-04-24T04:43:34.545Z,11.78
2023-04-24T04:44:34.577Z,11.81
2023-04-24T04:45:34.583Z,11.81
2023-04-24T04:46:34.591Z,11.77
2023-04-24T04:47:34.581Z,11.78
2023-04-24T04:48:34.573Z,11.82
2023-04-24T04:49:34.479Z,11.78
2023-04-24T04:50:34.467Z,11.82
2023-04-24T04:51:34.460Z,11.81
2023-04-24T04:52:34.442Z,11.81
2023-04-24T04:53:34.454Z,11.84
2023-04-24T04:54:34.426Z,11.81
2023-04-24T04:55:34.410Z,11.85
2023-04-24T04:56:34.392Z,11.81
2023-04-24T04:57:34.387Z,11.87
2023-04-24T04:58:34.380Z,11.85
2023-04-24T04:59:34.366Z,11.88
2023-04-24T05:00:36.041Z,11.88
2023-04-24T05:01:34.406Z,11.94
2023-04-24T05:02:34.500Z,11.90
2023-04-24T05:03:34.409Z,11.93
2023-04-24T05:04:34.730Z,11.94
2023-04-24T05:05:34.295Z,11.90
2023-04-24T05:06:34.284Z,11.88
2023-04-24T05:07:34.289Z,11.90
2023-04-24T05:08:34.270Z,11.93
2023-04-24T05:09:34.279Z,11.94
2023-04-24T05:10:34.240Z,12.00
2023-04-24T05:11:34.234Z,11.97
2023-04-24T05:12:34.218Z,12.00
2023-04-24T05:13:40.288Z,12.00
2023-04-24T05:14:35.224Z,12.03
2023-04-24T05:15:34.192Z,12.05
2023-04-24T05:16:34.201Z,12.03
2023-04-24T05:17:34.193Z,12.05
2023-04-24T05:18:34.163Z,12.08
2023-04-24T05:19:34.140Z,12.08
2023-04-24T05:20:34.137Z,12.05
2023-04-24T05:21:34.120Z,12.08
2023-04-24T05:22:34.119Z,12.13
2023-04-24T05:23:34.101Z,12.15
2023-04-24T05:24:34.090Z,12.13
2023-04-24T05:25:34.112Z,12.22
2023-04-24T05:26:34.070Z,12.25
2023-04-24T05:27:34.063Z,12.23
2023-04-24T05:28:34.044Z,12.23
2023-04-24T05:29:34.056Z,12.23
2023-04-24T05:30:34.029Z,12.26
2023-04-24T05:31:34.083Z,12.30
2023-04-24T05:32:34.105Z,12.29
2023-04-24T05:33:33.990Z,12.29
2023-04-24T05:34:33.983Z,12.26
2023-04-24T05:35:33.967Z,12.30
2023-04-24T05:36:33.955Z,12.25
2023-04-24T05:37:33.959Z,12.29
2023-04-24T05:38:33.935Z,12.29
2023-04-24T05:39:33.922Z,12.31
2023-04-24T05:40:33.911Z,12.33
2023-04-24T05:41:33.925Z,12.34
2023-04-24T05:42:33.889Z,12.33
2023-04-24T05:43:33.880Z,12.36
2023-04-24T05:44:33.866Z,12.36
2023-04-24T05:45:33.860Z,12.34
2023-04-24T05:46:33.864Z,12.36
2023-04-24T05:47:33.901Z,12.41
2023-04-24T05:48:33.821Z,12.43
2023-04-24T05:49:33.821Z,12.51
2023-04-24T05:50:36.154Z,12.54
2023-04-24T05:51:33.802Z,12.52
2023-04-24T05:52:33.783Z,12.56
2023-04-24T05:53:33.771Z,12.51
2023-04-24T05:54:33.779Z,12.49
2023-04-24T05:55:33.761Z,12.49
2023-04-24T05:56:33.738Z,12.49
2023-04-24T05:57:33.760Z,12.54
2023-04-24T05:58:33.705Z,12.58
2023-04-24T05:59:33.696Z,12.59
2023-04-24T06:00:33.746Z,12.61
2023-04-24T06:01:33.830Z,12.62
2023-04-24T06:02:33.963Z,12.66
2023-04-24T06:03:33.826Z,12.67
2023-04-24T06:04:33.752Z,12.70
2023-04-24T06:05:33.682Z,12.67
2023-04-24T06:06:33.634Z,12.61
2023-04-24T06:07:33.607Z,12.67
2023-04-24T06:08:33.668Z,12.63
2023-04-24T06:09:33.582Z,12.66
2023-04-24T06:10:33.570Z,12.70
2023-04-24T06:11:33.571Z,12.71
2023-04-24T06:12:33.552Z,12.73
2023-04-24T06:13:33.571Z,12.76
2023-04-24T06:14:33.524Z,12.74
2023-04-24T06:15:33.512Z,12.71
2023-04-24T06:16:33.565Z,12.70
2023-04-24T06:17:33.550Z,12.71
2023-04-24T06:18:33.477Z,12.71
2023-04-24T06:19:33.471Z,12.76
2023-04-24T06:20:33.463Z,12.81
2023-04-24T06:21:33.459Z,12.89
2023-04-24T06:22:33.473Z,12.89
2023-04-24T06:23:33.436Z,12.88
2023-04-24T06:24:33.416Z,12.91
2023-04-24T06:25:33.400Z,12.88
2023-04-24T06:26:33.390Z,12.87
2023-04-24T06:27:33.377Z,12.81
2023-04-24T06:28:33.398Z,12.77
2023-04-24T06:29:33.496Z,12.73
2023-04-24T06:30:33.344Z,12.70
2023-04-24T06:31:33.361Z,12.69
2023-04-24T06:32:33.370Z,12.59
2023-04-24T06:33:33.324Z,12.58
2023-04-24T06:34:33.297Z,12.55
2023-04-24T06:35:33.305Z,12.54
2023-04-24T06:36:33.283Z,12.55
2023-04-24T06:37:33.287Z,12.55
2023-04-24T06:38:33.260Z,12.48
2023-04-24T06:39:33.263Z,12.51
2023-04-24T06:40:33.240Z,12.54
2023-04-24T06:41:33.224Z,12.59
2023-04-24T06:42:33.206Z,12.59
2023-04-24T06:43:33.203Z,12.63
2023-04-24T06:44:33.183Z,12.61
2023-04-24T06:45:33.201Z,12.63
2023-04-24T06:46:33.367Z,12.74
2023-04-24T06:47:33.164Z,12.73
2023-04-24T06:48:33.148Z,12.77
2023-04-24T06:49:33.127Z,12.76
2023-04-24T06:50:33.117Z,12.80
2023-04-24T06:51:33.107Z,12.79
2023-04-24T06:52:33.100Z,12.81
2023-04-24T06:53:33.084Z,12.84
2023-04-24T06:54:33.096Z,12.84
2023-04-24T06:55:33.064Z,12.89
2023-04-24T06:56:33.050Z,12.94
2023-04-24T06:57:33.041Z,12.95
2023-04-24T06:58:33.043Z,12.99
2023-04-24T06:59:33.032Z,13.01
2023-04-24T07:00:33.425Z,13.07
2023-04-24T07:01:33.169Z,13.03
2023-04-24T07:02:33.192Z,13.06
2023-04-24T07:03:33.359Z,13.09
2023-04-24T07:04:33.251Z,13.09
2023-04-24T07:05:32.999Z,13.07
2023-04-24T07:06:32.948Z,13.04
2023-04-24T07:07:32.930Z,12.99
2023-04-24T07:08:32.916Z,12.98
2023-04-24T07:09:32.919Z,12.91
2023-04-24T07:10:32.898Z,12.88
2023-04-24T07:11:32.906Z,12.88
2023-04-24T07:12:32.878Z,12.87
2023-04-24T07:13:33.066Z,12.87
2023-04-24T07:14:32.853Z,12.95
2023-04-24T07:15:32.855Z,13.04
2023-04-24T07:16:33.039Z,13.07
2023-04-24T07:17:32.866Z,13.10
2023-04-24T07:18:32.814Z,13.12
2023-04-24T07:19:32.799Z,13.10
2023-04-24T07:20:32.793Z,13.13
2023-04-24T07:21:32.784Z,13.09
2023-04-24T07:22:32.772Z,13.13
2023-04-24T07:23:32.901Z,13.12
2023-04-24T07:24:32.740Z,13.09
2023-04-24T07:25:32.750Z,13.09
2023-04-24T07:26:32.989Z,13.03
2023-04-24T07:27:32.858Z,12.95
2023-04-24T07:28:32.696Z,12.98
2023-04-24T07:29:32.690Z,12.92
2023-04-24T07:30:32.713Z,13.01
2023-04-24T07:31:32.735Z,13.06
2023-04-24T07:32:32.658Z,13.14
2023-04-24T07:33:32.666Z,13.21
2023-04-24T07:34:32.628Z,13.21
2023-04-24T07:35:32.630Z,13.25
2023-04-24T07:36:32.677Z,13.19
2023-04-24T07:37:32.595Z,13.24
2023-04-24T07:38:32.596Z,13.38
2023-04-24T07:39:32.604Z,13.43
2023-04-24T07:40:32.632Z,13.50
2023-04-24T07:41:32.562Z,13.53
2023-04-24T07:42:32.594Z,13.59
2023-04-24T07:43:32.542Z,13.68
2023-04-24T07:44:32.535Z,13.73
2023-04-24T07:45:32.553Z,13.73
2023-04-24T07:46:32.585Z,13.75
2023-04-24T07:47:32.528Z,13.76
2023-04-24T07:48:32.483Z,13.86
2023-04-24T07:49:32.481Z,13.93
2023-04-24T07:50:32.457Z,14.04
2023-04-24T07:51:32.436Z,14.13
2023-04-24T07:52:32.426Z,14.08
2023-04-24T07:53:32.439Z,14.09
2023-04-24T07:54:32.411Z,14.09
2023-04-24T07:55:32.403Z,14.08
2023-04-24T07:56:32.520Z,14.16
2023-04-24T07:57:32.403Z,14.12
2023-04-24T07:58:32.370Z,14.16
2023-04-24T07:59:32.356Z,14.17
2023-04-24T08:00:32.350Z,14.17
2023-04-24T08:01:32.341Z,14.19
2023-04-24T08:02:32.491Z,14.19
2023-04-24T08:03:32.439Z,14.16
2023-04-24T08:04:32.453Z,14.08
2023-04-24T08:05:32.334Z,14.05
2023-04-24T08:06:32.322Z,14.02
2023-04-24T08:07:32.269Z,14.05
2023-04-24T08:08:32.253Z,14.06
2023-04-24T08:09:32.240Z,14.09
2023-04-24T08:10:32.264Z,14.01
2023-04-24T08:11:32.219Z,13.93
2023-04-24T08:12:32.214Z,13.96
2023-04-24T08:13:32.203Z,13.90
2023-04-24T08:14:32.186Z,13.86
2023-04-24T08:15:32.182Z,13.72
2023-04-24T08:16:32.245Z,13.66
2023-04-24T08:17:32.153Z,13.57
2023-04-24T08:18:32.195Z,13.63
2023-04-24T08:19:32.127Z,13.57
2023-04-24T08:20:32.128Z,13.59
2023-04-24T08:21:32.136Z,13.51
2023-04-24T08:22:32.101Z,13.53
2023-04-24T08:23:32.087Z,13.51
2023-04-24T08:24:32.077Z,13.55
2023-04-24T08:25:32.065Z,13.44
2023-04-24T08:26:32.053Z,13.44
2023-04-24T08:27:32.045Z,13.39
2023-04-24T08:28:32.039Z,13.38
2023-04-24T08:29:32.016Z,13.39
2023-04-24T08:30:32.006Z,13.46
2023-04-24T08:31:32.002Z,13.55
2023-04-24T08:32:32.018Z,13.59
2023-04-24T08:33:31.970Z,13.66
2023-04-24T08:34:31.958Z,13.63
2023-04-24T08:35:31.950Z,13.63
2023-04-24T08:36:40.016Z,13.65
2023-04-24T08:37:32.978Z,13.65
2023-04-24T08:38:31.916Z,13.68
2023-04-24T08:39:31.935Z,13.73
2023-04-24T08:40:31.903Z,13.69
2023-04-24T08:41:31.898Z,13.66
2023-04-24T08:42:31.874Z,13.59
2023-04-24T08:43:31.859Z,13.54
2023-04-24T08:44:31.846Z,13.46
2023-04-24T08:45:31.836Z,13.38
2023-04-24T08:46:32.011Z,13.46
2023-04-24T08:47:31.840Z,13.41
2023-04-24T08:48:32.357Z,13.38
2023-04-24T08:49:31.793Z,13.38
2023-04-24T08:50:31.782Z,13.36
2023-04-24T08:51:31.770Z,13.39
2023-04-24T08:52:31.758Z,13.32
2023-04-24T08:53:31.772Z,13.38
2023-04-24T08:54:31.737Z,13.36
2023-04-24T08:55:31.734Z,13.36
2023-04-24T08:56:31.713Z,13.32
2023-04-24T08:57:31.699Z,13.39
2023-04-24T08:58:31.735Z,13.36
2023-04-24T08:59:31.683Z,13.41
2023-04-24T09:00:31.674Z,13.43
2023-04-24T09:01:31.694Z,13.38
2023-04-24T09:02:31.778Z,13.44
2023-04-24T09:03:31.798Z,13.38
2023-04-24T09:04:31.839Z,13.41
2023-04-24T09:05:31.610Z,13.41
2023-04-24T09:06:31.599Z,13.43
2023-04-24T09:07:31.586Z,13.48
2023-04-24T09:08:31.583Z,13.50
2023-04-24T09:09:31.632Z,13.50
2023-04-24T09:10:31.597Z,13.51
2023-04-24T09:11:31.558Z,13.48
2023-04-24T09:12:31.536Z,13.51
2023-04-24T09:13:31.520Z,13.55
2023-04-24T09:14:31.509Z,13.48
2023-04-24T09:15:31.499Z,13.48
2023-04-24T09:16:31.541Z,13.43
2023-04-24T09:17:31.491Z,13.41
2023-04-24T09:18:31.469Z,13.41
2023-04-24T09:19:31.469Z,13.32
2023-04-24T09:20:31.451Z,13.35
2023-04-24T09:21:31.429Z,13.32
2023-04-24T09:22:31.421Z,13.29
2023-04-24T09:23:31.431Z,13.32
2023-04-24T09:24:31.395Z,13.29
2023-04-24T09:25:31.414Z,13.32
2023-04-24T09:26:31.377Z,13.29
2023-04-24T09:27:31.371Z,13.24
2023-04-24T09:28:31.354Z,13.27
2023-04-24T09:29:31.338Z,13.25
2023-04-24T09:30:31.328Z,13.22
2023-04-24T09:31:31.339Z,13.24
2023-04-24T09:32:31.376Z,13.24
2023-04-24T09:33:31.299Z,13.35
2023-04-24T09:34:31.294Z,13.29
2023-04-24T09:35:31.273Z,13.22
2023-04-24T09:36:31.261Z,13.27
2023-04-24T09:37:31.256Z,13.27
2023-04-24T09:38:31.239Z,13.31
2023-04-24T09:39:31.233Z,13.29
2023-04-24T09:40:31.222Z,13.35
2023-04-24T09:41:31.247Z,13.27
2023-04-24T09:42:31.198Z,13.28
2023-04-24T09:43:31.195Z,13.36
2023-04-24T09:44:31.172Z,13.39
2023-04-24T09:45:31.182Z,13.43
2023-04-24T09:46:31.358Z,13.48
2023-04-24T09:47:31.163Z,13.36
2023-04-24T09:48:31.129Z,13.36
2023-04-24T09:49:31.141Z,13.35
2023-04-24T09:50:31.113Z,13.39
2023-04-24T09:51:32.759Z,13.44
2023-04-24T09:52:31.080Z,13.41
2023-04-24T09:53:31.078Z,13.46
2023-04-24T09:54:31.057Z,13.43
2023-04-24T09:55:31.051Z,13.48
2023-04-24T09:56:31.037Z,13.41
2023-04-24T09:57:31.046Z,13.29
2023-04-24T09:58:31.032Z,13.28
2023-04-24T09:59:31.028Z,13.22
2023-04-24T10:00:31.018Z,13.17
2023-04-24T10:01:31.006Z,13.14
2023-04-24T10:02:31.034Z,13.10
2023-04-24T10:03:31.008Z,13.14
2023-04-24T10:04:30.980Z,13.09
2023-04-24T10:05:30.933Z,13.06
2023-04-24T10:06:30.925Z,12.99
2023-04-24T10:07:30.915Z,12.94
2023-04-24T10:08:30.930Z,12.85
2023-04-24T10:09:30.887Z,12.73
2023-04-24T10:10:30.895Z,12.71
2023-04-24T10:11:30.883Z,12.66
2023-04-24T10:12:30.872Z,12.67
2023-04-24T10:13:31.109Z,12.63
2023-04-24T10:14:30.839Z,12.62
2023-04-24T10:15:30.854Z,12.62
2023-04-24T10:16:30.947Z,12.63
2023-04-24T10:17:30.821Z,12.67
2023-04-24T10:18:30.800Z,12.73
2023-04-24T10:19:30.777Z,12.71
2023-04-24T10:20:30.781Z,12.79
2023-04-24T10:21:30.758Z,12.87
2023-04-24T10:22:30.750Z,13.03
2023-04-24T10:23:30.737Z,13.10
2023-04-24T10:24:30.725Z,13.12
2023-04-24T10:25:30.715Z,13.25
2023-04-24T10:26:30.711Z,13.29
2023-04-24T10:27:30.692Z,13.35
2023-04-24T10:28:30.683Z,13.48
2023-04-24T10:29:30.689Z,13.61
2023-04-24T10:30:30.673Z,13.73
2023-04-24T10:31:30.690Z,13.72
2023-04-24T10:32:30.714Z,13.83
2023-04-24T10:33:30.630Z,13.88
2023-04-24T10:34:30.636Z,14.01
2023-04-24T10:35:30.600Z,13.96
2023-04-24T10:36:30.590Z,14.05
2023-04-24T10:37:30.579Z,14.24
2023-04-24T10:38:30.587Z,14.27
2023-04-24T10:39:30.560Z,14.20
2023-04-24T10:40:30.550Z,14.21
2023-04-24T10:41:30.541Z,14.24
2023-04-24T10:42:30.524Z,14.23
2023-04-24T10:43:30.523Z,14.24
2023-04-24T10:44:30.504Z,14.26
2023-04-24T10:45:30.509Z,14.21
2023-04-24T10:46:30.524Z,14.20
2023-04-24T10:47:30.485Z,14.20
2023-04-24T10:48:30.457Z,14.20
2023-04-24T10:49:30.485Z,14.19
2023-04-24T10:50:30.436Z,14.02
2023-04-24T10:51:30.429Z,13.87
2023-04-24T10:52:30.413Z,13.84
2023-04-24T10:53:30.405Z,13.76
2023-04-24T10:54:30.392Z,13.68
2023-04-24T10:55:30.379Z,13.66
2023-04-24T10:56:30.368Z,13.50
2023-04-24T10:57:30.359Z,13.36
2023-04-24T10:58:30.348Z,13.10
2023-04-24T10:59:30.335Z,12.95
2023-04-24T11:00:30.324Z,12.88
2023-04-24T11:01:30.520Z,12.77
2023-04-24T11:02:30.408Z,12.69
2023-04-24T11:03:30.608Z,12.67
2023-04-24T11:04:30.289Z,12.56
2023-04-24T11:05:30.272Z,12.54
2023-04-24T11:06:30.260Z,12.49
2023-04-24T11:07:30.243Z,12.40
2023-04-24T11:08:30.234Z,12.41
2023-04-24T11:09:30.219Z,12.37
2023-04-24T11:10:30.213Z,12.38
2023-04-24T11:11:30.197Z,12.37
2023-04-24T11:12:30.184Z,12.46
2023-04-24T11:13:30.183Z,12.49
2023-04-24T11:14:30.165Z,12.46
2023-04-24T11:15:30.146Z,12.49
2023-04-24T11:16:30.300Z,12.52
2023-04-24T11:17:30.182Z,12.51
2023-04-24T11:18:30.115Z,12.51
2023-04-24T11:19:30.103Z,12.55
2023-04-24T11:20:30.091Z,12.55
2023-04-24T11:21:30.079Z,12.58
2023-04-24T11:22:30.077Z,12.51
2023-04-24T11:23:30.064Z,12.43
2023-04-24T11:24:30.056Z,12.43
2023-04-24T11:25:30.041Z,12.41
2023-04-24T11:26:30.022Z,12.38
2023-04-24T11:27:30.008Z,12.40
2023-04-24T11:28:30.105Z,12.44
2023-04-24T11:29:29.988Z,12.40
2023-04-24T11:30:29.993Z,12.30
2023-04-24T11:31:29.991Z,12.29
2023-04-24T11:32:30.042Z,12.22
2023-04-24T11:33:29.973Z,12.22
2023-04-24T11:34:29.933Z,12.05
2023-04-24T11:35:29.938Z,12.03
2023-04-24T11:36:29.916Z,11.96
2023-04-24T11:37:29.905Z,11.93
2023-04-24T11:38:29.900Z,11.93
2023-04-24T11:39:29.888Z,11.96
2023-04-24T11:40:29.867Z,11.81
2023-04-24T11:41:29.862Z,11.79
2023-04-24T11:42:29.860Z,11.78
2023-04-24T11:43:29.841Z,11.84
2023-04-24T11:44:29.821Z,11.87
2023-04-24T11:45:29.822Z,11.88
2023-04-24T11:46:29.841Z,11.88
2023-04-24T11:47:29.817Z,11.77
2023-04-24T11:48:29.780Z,11.77
2023-04-24T11:49:29.826Z,11.77
2023-04-24T11:50:29.989Z,11.75
2023-04-24T11:51:33.801Z,11.77
2023-04-24T11:52:30.773Z,11.72
2023-04-24T11:53:29.724Z,11.72
2023-04-24T11:54:29.711Z,11.74
2023-04-24T11:55:29.700Z,11.70
2023-04-24T11:56:29.686Z,11.63
2023-04-24T11:57:29.695Z,11.63
2023-04-24T11:58:29.671Z,11.60
2023-04-24T11:59:29.661Z,11.54
2023-04-24T12:00:29.679Z,11.53
2023-04-24T12:01:29.656Z,11.53
2023-04-24T12:02:29.872Z,11.49
2023-04-24T12:03:29.833Z,11.49
2023-04-24T12:04:29.916Z,11.41
2023-04-24T12:05:29.867Z,11.41
2023-04-24T12:06:29.582Z,11.45
2023-04-24T12:07:29.574Z,11.44
2023-04-24T12:08:29.565Z,11.46
2023-04-24T12:09:29.543Z,11.42
2023-04-24T12:10:29.540Z,11.46
2023-04-24T12:11:29.532Z,11.42
2023-04-24T12:12:29.523Z,11.42
2023-04-24T12:13:29.510Z,11.46
2023-04-24T12:14:29.494Z,11.51
2023-04-24T12:15:29.480Z,11.45
2023-04-24T12:16:29.550Z,11.46
2023-04-24T12:17:29.606Z,11.51
2023-04-24T12:18:29.444Z,11.48
2023-04-24T12:19:29.436Z,11.46
2023-04-24T12:20:29.459Z,11.44
2023-04-24T12:21:29.432Z,11.33
2023-04-24T12:22:29.397Z,11.31
2023-04-24T12:23:29.393Z,11.31
2023-04-24T12:24:29.374Z,11.30
2023-04-24T12:25:29.372Z,11.33
2023-04-24T12:26:29.352Z,11.35
2023-04-24T12:27:29.345Z,11.36
2023-04-24T12:28:29.334Z,11.38
2023-04-24T12:29:29.319Z,11.36
2023-04-24T12:30:29.412Z,11.35
2023-04-24T12:31:29.323Z,11.31
2023-04-24T12:32:29.313Z,11.41
2023-04-24T12:33:29.279Z,11.45
2023-04-24T12:34:29.259Z,11.46
2023-04-24T12:35:29.251Z,11.51
2023-04-24T12:36:29.238Z,11.49
2023-04-24T12:37:29.282Z,11.49
2023-04-24T12:38:29.222Z,11.54
2023-04-24T12:39:29.208Z,11.59
2023-04-24T12:40:29.198Z,11.62
2023-04-24T12:41:29.186Z,11.66
2023-04-24T12:42:29.174Z,11.62
2023-04-24T12:43:29.161Z,11.67
2023-04-24T12:44:29.149Z,11.67
2023-04-24T12:45:29.157Z,11.66
2023-04-24T12:46:29.157Z,11.66
2023-04-24T12:47:29.123Z,11.64
2023-04-24T12:48:29.174Z,11.60
2023-04-24T12:49:29.114Z,11.60
2023-04-24T12:50:29.090Z,11.57
2023-04-24T12:51:29.078Z,11.48
2023-04-24T12:52:29.078Z,11.35